sensor_id;sensor_type;location;lat;lon;timestamp;P1;durP1;ratioP1;P2;durP2;ratioP2
80836;SDS011;70251;60.008;30.404;2023-08-24T00:00:55;5.47;;;1.60;;
80836;SDS011;70251;60.008;30.404;2023-08-24T00:03:21;7.80;;;2.33;;
80836;SDS011;70251;60.008;30.404;2023-08-24T00:05:48;5.55;;;1.73;;
80836;SDS011;70251;60.008;30.404;2023-08-24T00:08:14;7.03;;;2.33;;
80836;SDS011;70251;60.008;30.404;2023-08-24T00:10:39;8.60;;;2.13;;
80836;SDS011;70251;60.008;30.404;2023-08-24T00:13:08;7.15;;;1.80;;
80836;SDS011;70251;60.008;30.404;2023-08-24T00:15:34;6.03;;;1.90;;
80836;SDS011;70251;60.008;30.404;2023-08-24T00:18:01;7.57;;;2.00;;
80836;SDS011;70251;60.008;30.404;2023-08-24T00:20:27;7.07;;;2.15;;
80836;SDS011;70251;60.008;30.404;2023-08-24T00:22:52;6.80;;;2.10;;
80836;SDS011;70251;60.008;30.404;2023-08-24T00:25:18;6.17;;;1.83;;
80836;SDS011;70251;60.008;30.404;2023-08-24T00:27:45;6.40;;;1.95;;
80836;SDS011;70251;60.008;30.404;2023-08-24T00:30:10;6.60;;;1.90;;
80836;SDS011;70251;60.008;30.404;2023-08-24T00:32:36;7.40;;;2.35;;
80836;SDS011;70251;60.008;30.404;2023-08-24T00:35:02;6.90;;;1.83;;
80836;SDS011;70251;60.008;30.404;2023-08-24T00:37:31;6.40;;;2.25;;
80836;SDS011;70251;60.008;30.404;2023-08-24T00:39:59;10.05;;;2.20;;
80836;SDS011;70251;60.008;30.404;2023-08-24T00:42:40;6.25;;;1.95;;
80836;SDS011;70251;60.008;30.404;2023-08-24T00:45:08;5.80;;;1.60;;
80836;SDS011;70251;60.008;30.404;2023-08-24T00:47:36;6.13;;;2.00;;
80836;SDS011;70251;60.008;30.404;2023-08-24T00:50:02;6.40;;;2.00;;
80836;SDS011;70251;60.008;30.404;2023-08-24T00:52:31;8.55;;;2.20;;
80836;SDS011;70251;60.008;30.404;2023-08-24T00:54:57;6.03;;;1.80;;
80836;SDS011;70251;60.008;30.404;2023-08-24T00:57:25;7.10;;;1.90;;
80836;SDS011;70251;60.008;30.404;2023-08-24T00:59:52;6.55;;;1.70;;
80836;SDS011;70251;60.008;30.404;2023-08-24T01:02:17;8.90;;;1.90;;
80836;SDS011;70251;60.008;30.404;2023-08-24T01:04:44;5.20;;;1.93;;
80836;SDS011;70251;60.008;30.404;2023-08-24T01:07:12;5.82;;;1.67;;
80836;SDS011;70251;60.008;30.404;2023-08-24T01:09:38;7.03;;;1.70;;
80836;SDS011;70251;60.008;30.404;2023-08-24T01:12:06;7.60;;;1.70;;
80836;SDS011;70251;60.008;30.404;2023-08-24T01:14:49;6.93;;;2.03;;
80836;SDS011;70251;60.008;30.404;2023-08-24T01:17:24;7.07;;;2.37;;
80836;SDS011;70251;60.008;30.404;2023-08-24T01:19:54;8.27;;;1.80;;
80836;SDS011;70251;60.008;30.404;2023-08-24T01:22:29;5.30;;;1.80;;
80836;SDS011;70251;60.008;30.404;2023-08-24T01:27:34;6.22;;;2.00;;
80836;SDS011;70251;60.008;30.404;2023-08-24T01:30:04;6.40;;;2.00;;
80836;SDS011;70251;60.008;30.404;2023-08-24T01:32:35;8.10;;;1.88;;
80836;SDS011;70251;60.008;30.404;2023-08-24T01:35:02;7.90;;;1.73;;
80836;SDS011;70251;60.008;30.404;2023-08-24T01:37:32;9.13;;;2.25;;
80836;SDS011;70251;60.008;30.404;2023-08-24T01:40:03;6.63;;;1.83;;
80836;SDS011;70251;60.008;30.404;2023-08-24T01:42:35;5.97;;;2.13;;
80836;SDS011;70251;60.008;30.404;2023-08-24T01:45:08;8.02;;;1.90;;
80836;SDS011;70251;60.008;30.404;2023-08-24T01:47:35;9.15;;;2.28;;
80836;SDS011;70251;60.008;30.404;2023-08-24T01:50:03;6.40;;;2.03;;
80836;SDS011;70251;60.008;30.404;2023-08-24T01:52:29;7.68;;;2.00;;
80836;SDS011;70251;60.008;30.404;2023-08-24T01:54:56;9.33;;;2.53;;
80836;SDS011;70251;60.008;30.404;2023-08-24T01:57:22;6.93;;;2.28;;
80836;SDS011;70251;60.008;30.404;2023-08-24T01:59:47;7.83;;;2.03;;
80836;SDS011;70251;60.008;30.404;2023-08-24T02:02:13;6.90;;;2.00;;
80836;SDS011;70251;60.008;30.404;2023-08-24T02:04:38;6.03;;;2.20;;
80836;SDS011;70251;60.008;30.404;2023-08-24T02:07:04;6.20;;;1.77;;
80836;SDS011;70251;60.008;30.404;2023-08-24T02:09:30;7.90;;;2.10;;
80836;SDS011;70251;60.008;30.404;2023-08-24T02:11:56;6.85;;;2.47;;
80836;SDS011;70251;60.008;30.404;2023-08-24T02:14:22;7.10;;;2.00;;
80836;SDS011;70251;60.008;30.404;2023-08-24T02:16:47;7.50;;;2.10;;
80836;SDS011;70251;60.008;30.404;2023-08-24T02:19:13;8.43;;;2.20;;
80836;SDS011;70251;60.008;30.404;2023-08-24T02:21:39;6.90;;;2.10;;
80836;SDS011;70251;60.008;30.404;2023-08-24T02:24:05;6.65;;;2.22;;
80836;SDS011;70251;60.008;30.404;2023-08-24T02:26:31;4.82;;;1.88;;
80836;SDS011;70251;60.008;30.404;2023-08-24T02:28:56;9.10;;;2.40;;
80836;SDS011;70251;60.008;30.404;2023-08-24T02:31:22;6.18;;;1.98;;
80836;SDS011;70251;60.008;30.404;2023-08-24T02:33:48;8.07;;;2.50;;
80836;SDS011;70251;60.008;30.404;2023-08-24T02:36:14;9.23;;;2.05;;
80836;SDS011;70251;60.008;30.404;2023-08-24T02:38:40;9.10;;;1.97;;
80836;SDS011;70251;60.008;30.404;2023-08-24T02:41:06;8.50;;;2.60;;
80836;SDS011;70251;60.008;30.404;2023-08-24T02:43:32;9.25;;;2.50;;
80836;SDS011;70251;60.008;30.404;2023-08-24T02:46:02;6.45;;;2.03;;
80836;SDS011;70251;60.008;30.404;2023-08-24T02:48:29;6.53;;;2.20;;
80836;SDS011;70251;60.008;30.404;2023-08-24T02:50:59;10.38;;;2.50;;
80836;SDS011;70251;60.008;30.404;2023-08-24T02:53:26;8.95;;;2.53;;
80836;SDS011;70251;60.008;30.404;2023-08-24T02:55:52;8.20;;;2.72;;
80836;SDS011;70251;60.008;30.404;2023-08-24T02:58:19;8.77;;;2.47;;
80836;SDS011;70251;60.008;30.404;2023-08-24T03:00:45;8.80;;;2.47;;
80836;SDS011;70251;60.008;30.404;2023-08-24T03:03:13;5.80;;;1.90;;
80836;SDS011;70251;60.008;30.404;2023-08-24T03:05:40;7.53;;;2.00;;
80836;SDS011;70251;60.008;30.404;2023-08-24T03:08:05;7.07;;;2.00;;
80836;SDS011;70251;60.008;30.404;2023-08-24T03:10:34;9.35;;;2.20;;
80836;SDS011;70251;60.008;30.404;2023-08-24T03:13:00;6.50;;;1.95;;
80836;SDS011;70251;60.008;30.404;2023-08-24T03:15:26;6.97;;;2.70;;
80836;SDS011;70251;60.008;30.404;2023-08-24T03:17:51;9.65;;;3.00;;
80836;SDS011;70251;60.008;30.404;2023-08-24T03:20:18;10.37;;;3.50;;
80836;SDS011;70251;60.008;30.404;2023-08-24T03:22:44;8.40;;;3.67;;
80836;SDS011;70251;60.008;30.404;2023-08-24T03:25:10;7.20;;;3.38;;
80836;SDS011;70251;60.008;30.404;2023-08-24T03:27:36;8.07;;;3.27;;
80836;SDS011;70251;60.008;30.404;2023-08-24T03:30:03;9.63;;;2.88;;
80836;SDS011;70251;60.008;30.404;2023-08-24T03:32:30;10.02;;;2.80;;
80836;SDS011;70251;60.008;30.404;2023-08-24T03:34:59;9.43;;;2.97;;
80836;SDS011;70251;60.008;30.404;2023-08-24T03:37:25;8.90;;;2.83;;
80836;SDS011;70251;60.008;30.404;2023-08-24T03:39:51;8.70;;;2.83;;
80836;SDS011;70251;60.008;30.404;2023-08-24T03:42:16;8.20;;;2.58;;
80836;SDS011;70251;60.008;30.404;2023-08-24T03:44:42;7.30;;;2.50;;
80836;SDS011;70251;60.008;30.404;2023-08-24T03:47:07;10.07;;;2.53;;
80836;SDS011;70251;60.008;30.404;2023-08-24T03:49:34;10.63;;;2.45;;
80836;SDS011;70251;60.008;30.404;2023-08-24T03:51:59;10.05;;;2.55;;
80836;SDS011;70251;60.008;30.404;2023-08-24T03:54:25;12.60;;;2.90;;
80836;SDS011;70251;60.008;30.404;2023-08-24T03:56:51;8.80;;;2.70;;
80836;SDS011;70251;60.008;30.404;2023-08-24T03:59:16;8.40;;;2.80;;
80836;SDS011;70251;60.008;30.404;2023-08-24T04:01:42;11.57;;;2.70;;
80836;SDS011;70251;60.008;30.404;2023-08-24T04:04:08;8.90;;;2.40;;
80836;SDS011;70251;60.008;30.404;2023-08-24T04:06:33;9.40;;;2.33;;
80836;SDS011;70251;60.008;30.404;2023-08-24T04:08:59;7.50;;;2.77;;
80836;SDS011;70251;60.008;30.404;2023-08-24T04:11:24;8.87;;;2.13;;
80836;SDS011;70251;60.008;30.404;2023-08-24T04:13:50;8.85;;;2.20;;
80836;SDS011;70251;60.008;30.404;2023-08-24T04:16:15;6.77;;;2.37;;
80836;SDS011;70251;60.008;30.404;2023-08-24T04:18:41;8.30;;;2.42;;
80836;SDS011;70251;60.008;30.404;2023-08-24T04:21:07;7.03;;;2.20;;
80836;SDS011;70251;60.008;30.404;2023-08-24T04:23:33;10.37;;;2.60;;
80836;SDS011;70251;60.008;30.404;2023-08-24T04:25:58;9.93;;;2.63;;
80836;SDS011;70251;60.008;30.404;2023-08-24T04:28:24;8.40;;;2.30;;
80836;SDS011;70251;60.008;30.404;2023-08-24T04:30:53;8.23;;;2.60;;
80836;SDS011;70251;60.008;30.404;2023-08-24T04:33:21;7.82;;;2.67;;
80836;SDS011;70251;60.008;30.404;2023-08-24T04:35:50;9.57;;;2.70;;
80836;SDS011;70251;60.008;30.404;2023-08-24T04:38:16;9.77;;;2.70;;
80836;SDS011;70251;60.008;30.404;2023-08-24T04:40:46;9.95;;;2.72;;
80836;SDS011;70251;60.008;30.404;2023-08-24T04:43:16;9.13;;;2.97;;
80836;SDS011;70251;60.008;30.404;2023-08-24T04:45:42;13.65;;;3.40;;
80836;SDS011;70251;60.008;30.404;2023-08-24T04:48:10;9.87;;;3.20;;
80836;SDS011;70251;60.008;30.404;2023-08-24T04:50:36;10.50;;;3.03;;
80836;SDS011;70251;60.008;30.404;2023-08-24T04:53:01;8.30;;;3.00;;
80836;SDS011;70251;60.008;30.404;2023-08-24T04:55:27;12.10;;;3.80;;
80836;SDS011;70251;60.008;30.404;2023-08-24T04:57:52;8.23;;;3.28;;
80836;SDS011;70251;60.008;30.404;2023-08-24T05:00:18;7.40;;;3.07;;
80836;SDS011;70251;60.008;30.404;2023-08-24T05:02:44;10.00;;;3.08;;
80836;SDS011;70251;60.008;30.404;2023-08-24T05:05:09;10.67;;;2.77;;
80836;SDS011;70251;60.008;30.404;2023-08-24T05:07:36;9.90;;;3.40;;
80836;SDS011;70251;60.008;30.404;2023-08-24T05:10:03;9.77;;;3.50;;
80836;SDS011;70251;60.008;30.404;2023-08-24T05:12:30;12.17;;;3.30;;
80836;SDS011;70251;60.008;30.404;2023-08-24T05:14:55;8.85;;;3.20;;
80836;SDS011;70251;60.008;30.404;2023-08-24T05:17:21;10.37;;;3.03;;
80836;SDS011;70251;60.008;30.404;2023-08-24T05:19:53;12.30;;;3.65;;
80836;SDS011;70251;60.008;30.404;2023-08-24T05:22:19;12.70;;;3.40;;
80836;SDS011;70251;60.008;30.404;2023-08-24T05:24:45;14.70;;;3.85;;
80836;SDS011;70251;60.008;30.404;2023-08-24T05:27:11;18.93;;;3.60;;
80836;SDS011;70251;60.008;30.404;2023-08-24T05:29:37;23.42;;;4.38;;
80836;SDS011;70251;60.008;30.404;2023-08-24T05:32:03;16.00;;;3.57;;
80836;SDS011;70251;60.008;30.404;2023-08-24T05:34:28;8.02;;;3.10;;
80836;SDS011;70251;60.008;30.404;2023-08-24T05:36:54;6.88;;;2.45;;
80836;SDS011;70251;60.008;30.404;2023-08-24T05:39:20;9.27;;;2.50;;
80836;SDS011;70251;60.008;30.404;2023-08-24T05:41:45;8.03;;;2.87;;
80836;SDS011;70251;60.008;30.404;2023-08-24T05:44:14;8.63;;;2.35;;
80836;SDS011;70251;60.008;30.404;2023-08-24T05:46:42;22.08;;;3.10;;
80836;SDS011;70251;60.008;30.404;2023-08-24T05:49:07;10.23;;;2.90;;
80836;SDS011;70251;60.008;30.404;2023-08-24T05:51:33;10.47;;;2.70;;
80836;SDS011;70251;60.008;30.404;2023-08-24T05:53:58;9.48;;;2.92;;
80836;SDS011;70251;60.008;30.404;2023-08-24T05:56:25;10.60;;;2.75;;
80836;SDS011;70251;60.008;30.404;2023-08-24T05:58:50;10.47;;;2.70;;
80836;SDS011;70251;60.008;30.404;2023-08-24T06:01:16;9.50;;;2.83;;
80836;SDS011;70251;60.008;30.404;2023-08-24T06:03:42;9.85;;;2.28;;
80836;SDS011;70251;60.008;30.404;2023-08-24T06:06:07;10.97;;;3.37;;
80836;SDS011;70251;60.008;30.404;2023-08-24T06:08:34;11.15;;;3.58;;
80836;SDS011;70251;60.008;30.404;2023-08-24T06:11:00;11.63;;;3.13;;
80836;SDS011;70251;60.008;30.404;2023-08-24T06:13:26;12.10;;;3.83;;
80836;SDS011;70251;60.008;30.404;2023-08-24T06:15:52;10.18;;;3.30;;
80836;SDS011;70251;60.008;30.404;2023-08-24T06:18:18;9.52;;;3.08;;
80836;SDS011;70251;60.008;30.404;2023-08-24T06:20:43;10.60;;;2.60;;
80836;SDS011;70251;60.008;30.404;2023-08-24T06:23:09;8.25;;;2.80;;
80836;SDS011;70251;60.008;30.404;2023-08-24T06:25:35;8.73;;;2.70;;
80836;SDS011;70251;60.008;30.404;2023-08-24T06:28:00;10.38;;;3.05;;
80836;SDS011;70251;60.008;30.404;2023-08-24T06:30:29;8.27;;;2.30;;
80836;SDS011;70251;60.008;30.404;2023-08-24T06:32:58;8.18;;;2.28;;
80836;SDS011;70251;60.008;30.404;2023-08-24T06:35:25;8.80;;;2.07;;
80836;SDS011;70251;60.008;30.404;2023-08-24T06:37:50;9.80;;;2.33;;
80836;SDS011;70251;60.008;30.404;2023-08-24T06:40:16;8.32;;;1.90;;
80836;SDS011;70251;60.008;30.404;2023-08-24T06:42:42;9.07;;;1.70;;
80836;SDS011;70251;60.008;30.404;2023-08-24T06:45:08;7.13;;;1.73;;
80836;SDS011;70251;60.008;30.404;2023-08-24T06:47:36;10.02;;;1.70;;
80836;SDS011;70251;60.008;30.404;2023-08-24T06:50:02;7.07;;;1.88;;
80836;SDS011;70251;60.008;30.404;2023-08-24T06:52:29;6.30;;;1.90;;
80836;SDS011;70251;60.008;30.404;2023-08-24T06:54:54;7.65;;;1.60;;
80836;SDS011;70251;60.008;30.404;2023-08-24T06:57:21;5.93;;;1.90;;
80836;SDS011;70251;60.008;30.404;2023-08-24T06:59:47;10.77;;;1.77;;
80836;SDS011;70251;60.008;30.404;2023-08-24T07:02:13;5.32;;;1.08;;
80836;SDS011;70251;60.008;30.404;2023-08-24T07:04:40;8.13;;;1.77;;
80836;SDS011;70251;60.008;30.404;2023-08-24T07:07:06;8.48;;;1.70;;
80836;SDS011;70251;60.008;30.404;2023-08-24T07:09:32;8.63;;;1.58;;
80836;SDS011;70251;60.008;30.404;2023-08-24T07:11:57;8.77;;;1.40;;
80836;SDS011;70251;60.008;30.404;2023-08-24T07:14:23;6.35;;;1.55;;
80836;SDS011;70251;60.008;30.404;2023-08-24T07:16:48;7.07;;;1.20;;
80836;SDS011;70251;60.008;30.404;2023-08-24T07:19:14;7.68;;;1.48;;
80836;SDS011;70251;60.008;30.404;2023-08-24T07:21:40;7.10;;;1.30;;
80836;SDS011;70251;60.008;30.404;2023-08-24T07:24:05;10.60;;;1.67;;
80836;SDS011;70251;60.008;30.404;2023-08-24T07:26:31;5.77;;;1.47;;
80836;SDS011;70251;60.008;30.404;2023-08-24T07:28:57;7.25;;;1.70;;
80836;SDS011;70251;60.008;30.404;2023-08-24T07:31:23;6.10;;;1.70;;
80836;SDS011;70251;60.008;30.404;2023-08-24T07:33:48;9.40;;;1.98;;
80836;SDS011;70251;60.008;30.404;2023-08-24T07:36:14;6.97;;;1.53;;
80836;SDS011;70251;60.008;30.404;2023-08-24T07:38:39;9.63;;;1.60;;
80836;SDS011;70251;60.008;30.404;2023-08-24T07:41:05;7.87;;;1.67;;
80836;SDS011;70251;60.008;30.404;2023-08-24T07:43:31;7.78;;;1.88;;
80836;SDS011;70251;60.008;30.404;2023-08-24T07:46:12;6.15;;;1.40;;
80836;SDS011;70251;60.008;30.404;2023-08-24T07:48:39;7.10;;;1.50;;
80836;SDS011;70251;60.008;30.404;2023-08-24T07:51:05;5.90;;;1.20;;
80836;SDS011;70251;60.008;30.404;2023-08-24T07:53:31;7.15;;;1.63;;
80836;SDS011;70251;60.008;30.404;2023-08-24T07:55:58;5.53;;;1.58;;
80836;SDS011;70251;60.008;30.404;2023-08-24T07:58:24;7.60;;;1.73;;
80836;SDS011;70251;60.008;30.404;2023-08-24T08:00:50;8.98;;;1.90;;
80836;SDS011;70251;60.008;30.404;2023-08-24T08:03:19;5.65;;;1.45;;
80836;SDS011;70251;60.008;30.404;2023-08-24T08:05:45;10.75;;;1.80;;
80836;SDS011;70251;60.008;30.404;2023-08-24T08:08:15;7.03;;;1.75;;
80836;SDS011;70251;60.008;30.404;2023-08-24T08:10:41;9.83;;;1.87;;
80836;SDS011;70251;60.008;30.404;2023-08-24T08:13:08;9.77;;;2.05;;
80836;SDS011;70251;60.008;30.404;2023-08-24T08:15:36;6.15;;;1.63;;
80836;SDS011;70251;60.008;30.404;2023-08-24T08:18:03;5.40;;;1.85;;
80836;SDS011;70251;60.008;30.404;2023-08-24T08:20:30;7.15;;;1.90;;
80836;SDS011;70251;60.008;30.404;2023-08-24T08:22:56;6.83;;;1.80;;
80836;SDS011;70251;60.008;30.404;2023-08-24T08:25:22;7.30;;;1.60;;
80836;SDS011;70251;60.008;30.404;2023-08-24T08:27:48;6.55;;;1.38;;
80836;SDS011;70251;60.008;30.404;2023-08-24T08:30:14;8.63;;;1.45;;
80836;SDS011;70251;60.008;30.404;2023-08-24T08:32:41;5.77;;;1.20;;
80836;SDS011;70251;60.008;30.404;2023-08-24T08:35:10;12.25;;;1.33;;
80836;SDS011;70251;60.008;30.404;2023-08-24T08:37:36;31.40;;;1.53;;
80836;SDS011;70251;60.008;30.404;2023-08-24T08:40:09;10.67;;;1.10;;
80836;SDS011;70251;60.008;30.404;2023-08-24T08:42:35;6.65;;;0.50;;
80836;SDS011;70251;60.008;30.404;2023-08-24T08:45:02;3.72;;;0.85;;
80836;SDS011;70251;60.008;30.404;2023-08-24T08:47:33;5.05;;;1.25;;
80836;SDS011;70251;60.008;30.404;2023-08-24T08:49:59;3.63;;;0.87;;
80836;SDS011;70251;60.008;30.404;2023-08-24T08:52:31;4.47;;;1.05;;
80836;SDS011;70251;60.008;30.404;2023-08-24T08:54:58;6.20;;;1.00;;
80836;SDS011;70251;60.008;30.404;2023-08-24T08:57:24;3.95;;;0.90;;
80836;SDS011;70251;60.008;30.404;2023-08-24T08:59:51;3.55;;;1.02;;
80836;SDS011;70251;60.008;30.404;2023-08-24T09:02:18;4.10;;;0.80;;
80836;SDS011;70251;60.008;30.404;2023-08-24T09:04:45;5.60;;;1.05;;
80836;SDS011;70251;60.008;30.404;2023-08-24T09:07:13;5.07;;;0.90;;
80836;SDS011;70251;60.008;30.404;2023-08-24T09:09:39;4.80;;;1.02;;
80836;SDS011;70251;60.008;30.404;2023-08-24T09:12:05;4.83;;;1.33;;
80836;SDS011;70251;60.008;30.404;2023-08-24T09:14:32;5.88;;;1.33;;
80836;SDS011;70251;60.008;30.404;2023-08-24T09:16:58;5.43;;;1.58;;
80836;SDS011;70251;60.008;30.404;2023-08-24T09:19:27;6.57;;;1.50;;
80836;SDS011;70251;60.008;30.404;2023-08-24T09:21:58;3.63;;;1.00;;
80836;SDS011;70251;60.008;30.404;2023-08-24T09:24:33;3.78;;;0.98;;
80836;SDS011;70251;60.008;30.404;2023-08-24T09:27:13;2.08;;;0.47;;
80836;SDS011;70251;60.008;30.404;2023-08-24T09:29:42;4.10;;;0.90;;
80836;SDS011;70251;60.008;30.404;2023-08-24T09:32:08;8.00;;;1.42;;
80836;SDS011;70251;60.008;30.404;2023-08-24T09:34:35;5.15;;;1.00;;
80836;SDS011;70251;60.008;30.404;2023-08-24T09:37:02;6.40;;;1.05;;
80836;SDS011;70251;60.008;30.404;2023-08-24T09:39:30;5.72;;;1.10;;
80836;SDS011;70251;60.008;30.404;2023-08-24T09:41:58;5.20;;;1.13;;
80836;SDS011;70251;60.008;30.404;2023-08-24T09:44:28;5.22;;;1.30;;
80836;SDS011;70251;60.008;30.404;2023-08-24T09:46:55;4.63;;;1.08;;
80836;SDS011;70251;60.008;30.404;2023-08-24T09:49:20;5.83;;;0.93;;
80836;SDS011;70251;60.008;30.404;2023-08-24T09:51:46;6.57;;;1.70;;
80836;SDS011;70251;60.008;30.404;2023-08-24T09:54:13;8.05;;;1.30;;
80836;SDS011;70251;60.008;30.404;2023-08-24T09:56:42;5.10;;;1.50;;
80836;SDS011;70251;60.008;30.404;2023-08-24T09:59:12;6.63;;;1.70;;
80836;SDS011;70251;60.008;30.404;2023-08-24T10:01:42;4.70;;;1.23;;
80836;SDS011;70251;60.008;30.404;2023-08-24T10:04:25;11.57;;;1.77;;
80836;SDS011;70251;60.008;30.404;2023-08-24T10:06:59;7.15;;;1.80;;
80836;SDS011;70251;60.008;30.404;2023-08-24T10:09:38;8.45;;;1.77;;
80836;SDS011;70251;60.008;30.404;2023-08-24T10:12:10;6.13;;;1.75;;
80836;SDS011;70251;60.008;30.404;2023-08-24T10:14:48;8.07;;;1.80;;
80836;SDS011;70251;60.008;30.404;2023-08-24T10:17:17;6.22;;;1.80;;
80836;SDS011;70251;60.008;30.404;2023-08-24T10:19:43;7.68;;;1.65;;
80836;SDS011;70251;60.008;30.404;2023-08-24T10:22:09;7.00;;;1.60;;
80836;SDS011;70251;60.008;30.404;2023-08-24T10:24:36;9.10;;;2.10;;
80836;SDS011;70251;60.008;30.404;2023-08-24T10:27:02;6.15;;;1.85;;
80836;SDS011;70251;60.008;30.404;2023-08-24T10:29:28;6.63;;;2.40;;
80836;SDS011;70251;60.008;30.404;2023-08-24T10:31:55;8.35;;;2.30;;
80836;SDS011;70251;60.008;30.404;2023-08-24T10:34:22;14.48;;;2.63;;
80836;SDS011;70251;60.008;30.404;2023-08-24T10:36:48;5.83;;;2.53;;
80836;SDS011;70251;60.008;30.404;2023-08-24T10:39:26;7.68;;;2.60;;
80836;SDS011;70251;60.008;30.404;2023-08-24T10:41:53;7.40;;;2.38;;
80836;SDS011;70251;60.008;30.404;2023-08-24T10:44:20;7.97;;;2.25;;
80836;SDS011;70251;60.008;30.404;2023-08-24T10:47:05;6.65;;;2.60;;
80836;SDS011;70251;60.008;30.404;2023-08-24T10:49:32;6.67;;;2.30;;
80836;SDS011;70251;60.008;30.404;2023-08-24T10:51:58;5.78;;;2.00;;
80836;SDS011;70251;60.008;30.404;2023-08-24T10:54:43;6.25;;;1.85;;
80836;SDS011;70251;60.008;30.404;2023-08-24T10:57:17;7.15;;;2.10;;
80836;SDS011;70251;60.008;30.404;2023-08-24T10:59:45;7.60;;;2.10;;
80836;SDS011;70251;60.008;30.404;2023-08-24T11:02:17;7.87;;;2.50;;
80836;SDS011;70251;60.008;30.404;2023-08-24T11:05:18;6.57;;;2.40;;
80836;SDS011;70251;60.008;30.404;2023-08-24T11:07:59;5.70;;;2.13;;
80836;SDS011;70251;60.008;30.404;2023-08-24T11:13:07;7.40;;;2.17;;
80836;SDS011;70251;60.008;30.404;2023-08-24T11:15:44;5.93;;;1.88;;
80836;SDS011;70251;60.008;30.404;2023-08-24T11:18:12;6.47;;;1.90;;
80836;SDS011;70251;60.008;30.404;2023-08-24T11:20:44;6.32;;;2.20;;
80836;SDS011;70251;60.008;30.404;2023-08-24T11:23:11;6.93;;;1.80;;
80836;SDS011;70251;60.008;30.404;2023-08-24T11:25:37;6.45;;;1.85;;
80836;SDS011;70251;60.008;30.404;2023-08-24T11:28:03;5.18;;;1.80;;
80836;SDS011;70251;60.008;30.404;2023-08-24T11:30:33;6.30;;;1.90;;
80836;SDS011;70251;60.008;30.404;2023-08-24T11:33:00;4.00;;;1.15;;
80836;SDS011;70251;60.008;30.404;2023-08-24T11:35:27;5.83;;;1.57;;
80836;SDS011;70251;60.008;30.404;2023-08-24T11:37:53;7.30;;;1.85;;
80836;SDS011;70251;60.008;30.404;2023-08-24T11:40:19;8.50;;;1.65;;
80836;SDS011;70251;60.008;30.404;2023-08-24T11:42:46;5.00;;;1.55;;
80836;SDS011;70251;60.008;30.404;2023-08-24T11:45:12;5.47;;;1.23;;
80836;SDS011;70251;60.008;30.404;2023-08-24T11:47:41;5.53;;;1.80;;
80836;SDS011;70251;60.008;30.404;2023-08-24T11:50:07;6.43;;;1.58;;
80836;SDS011;70251;60.008;30.404;2023-08-24T11:52:38;4.68;;;1.35;;
80836;SDS011;70251;60.008;30.404;2023-08-24T11:55:07;5.65;;;1.30;;
80836;SDS011;70251;60.008;30.404;2023-08-24T11:57:34;3.10;;;1.00;;
80836;SDS011;70251;60.008;30.404;2023-08-24T12:00:02;4.22;;;1.30;;
80836;SDS011;70251;60.008;30.404;2023-08-24T12:02:31;4.38;;;1.20;;
80836;SDS011;70251;60.008;30.404;2023-08-24T12:04:58;4.90;;;1.40;;
80836;SDS011;70251;60.008;30.404;2023-08-24T12:07:25;3.08;;;1.08;;
80836;SDS011;70251;60.008;30.404;2023-08-24T12:09:53;5.33;;;1.50;;
80836;SDS011;70251;60.008;30.404;2023-08-24T12:12:20;3.88;;;1.33;;
80836;SDS011;70251;60.008;30.404;2023-08-24T12:14:47;5.35;;;1.70;;
80836;SDS011;70251;60.008;30.404;2023-08-24T12:17:13;6.40;;;2.58;;
80836;SDS011;70251;60.008;30.404;2023-08-24T12:19:43;4.78;;;1.80;;
80836;SDS011;70251;60.008;30.404;2023-08-24T12:22:15;5.97;;;1.50;;
80836;SDS011;70251;60.008;30.404;2023-08-24T12:24:45;6.40;;;1.50;;
80836;SDS011;70251;60.008;30.404;2023-08-24T12:27:18;4.78;;;1.50;;
80836;SDS011;70251;60.008;30.404;2023-08-24T12:29:47;6.57;;;1.65;;
80836;SDS011;70251;60.008;30.404;2023-08-24T12:32:15;4.57;;;1.80;;
80836;SDS011;70251;60.008;30.404;2023-08-24T12:34:41;5.40;;;1.73;;
80836;SDS011;70251;60.008;30.404;2023-08-24T12:37:10;5.97;;;2.70;;
80836;SDS011;70251;60.008;30.404;2023-08-24T12:39:36;6.05;;;2.00;;
80836;SDS011;70251;60.008;30.404;2023-08-24T12:42:03;7.07;;;1.92;;
80836;SDS011;70251;60.008;30.404;2023-08-24T12:44:29;9.95;;;2.10;;
80836;SDS011;70251;60.008;30.404;2023-08-24T12:46:54;6.57;;;1.77;;
80836;SDS011;70251;60.008;30.404;2023-08-24T12:49:20;6.00;;;1.70;;
80836;SDS011;70251;60.008;30.404;2023-08-24T12:51:46;4.80;;;1.43;;
80836;SDS011;70251;60.008;30.404;2023-08-24T12:54:12;4.85;;;1.55;;
80836;SDS011;70251;60.008;30.404;2023-08-24T12:56:41;4.70;;;1.47;;
80836;SDS011;70251;60.008;30.404;2023-08-24T12:59:07;4.20;;;1.50;;
80836;SDS011;70251;60.008;30.404;2023-08-24T13:01:33;4.47;;;1.55;;
80836;SDS011;70251;60.008;30.404;2023-08-24T13:04:00;5.30;;;1.33;;
80836;SDS011;70251;60.008;30.404;2023-08-24T13:06:25;4.60;;;1.60;;
80836;SDS011;70251;60.008;30.404;2023-08-24T13:08:57;5.93;;;2.00;;
80836;SDS011;70251;60.008;30.404;2023-08-24T13:11:23;6.18;;;1.83;;
80836;SDS011;70251;60.008;30.404;2023-08-24T13:13:49;6.60;;;2.03;;
80836;SDS011;70251;60.008;30.404;2023-08-24T13:16:14;5.43;;;1.67;;
80836;SDS011;70251;60.008;30.404;2023-08-24T13:18:41;7.03;;;1.58;;
80836;SDS011;70251;60.008;30.404;2023-08-24T13:21:07;5.90;;;1.20;;
80836;SDS011;70251;60.008;30.404;2023-08-24T13:23:33;5.95;;;1.40;;
80836;SDS011;70251;60.008;30.404;2023-08-24T13:25:59;4.40;;;1.47;;
80836;SDS011;70251;60.008;30.404;2023-08-24T13:28:25;5.40;;;1.40;;
80836;SDS011;70251;60.008;30.404;2023-08-24T13:30:51;5.18;;;1.33;;
80836;SDS011;70251;60.008;30.404;2023-08-24T13:33:17;4.40;;;1.20;;
80836;SDS011;70251;60.008;30.404;2023-08-24T13:35:44;3.80;;;1.03;;
80836;SDS011;70251;60.008;30.404;2023-08-24T13:38:10;3.72;;;1.25;;
80836;SDS011;70251;60.008;30.404;2023-08-24T13:40:36;3.65;;;1.25;;
80836;SDS011;70251;60.008;30.404;2023-08-24T13:43:01;4.27;;;1.40;;
80836;SDS011;70251;60.008;30.404;2023-08-24T13:45:27;3.90;;;1.03;;
80836;SDS011;70251;60.008;30.404;2023-08-24T13:47:56;6.80;;;1.27;;
80836;SDS011;70251;60.008;30.404;2023-08-24T13:50:21;3.15;;;1.08;;
80836;SDS011;70251;60.008;30.404;2023-08-24T13:52:47;6.43;;;1.40;;
80836;SDS011;70251;60.008;30.404;2023-08-24T13:55:12;7.03;;;1.40;;
80836;SDS011;70251;60.008;30.404;2023-08-24T13:57:38;4.33;;;1.33;;
80836;SDS011;70251;60.008;30.404;2023-08-24T14:00:03;5.17;;;1.33;;
80836;SDS011;70251;60.008;30.404;2023-08-24T14:02:33;5.07;;;1.20;;
80836;SDS011;70251;60.008;30.404;2023-08-24T14:04:58;3.87;;;1.27;;
80836;SDS011;70251;60.008;30.404;2023-08-24T14:07:24;3.97;;;1.35;;
80836;SDS011;70251;60.008;30.404;2023-08-24T14:09:49;3.77;;;1.10;;
80836;SDS011;70251;60.008;30.404;2023-08-24T14:12:15;3.88;;;1.05;;
80836;SDS011;70251;60.008;30.404;2023-08-24T14:14:40;3.77;;;1.03;;
80836;SDS011;70251;60.008;30.404;2023-08-24T14:17:09;6.65;;;1.58;;
80836;SDS011;70251;60.008;30.404;2023-08-24T14:19:35;4.57;;;1.00;;
80836;SDS011;70251;60.008;30.404;2023-08-24T14:22:00;3.70;;;1.07;;
80836;SDS011;70251;60.008;30.404;2023-08-24T14:24:26;3.22;;;1.02;;
80836;SDS011;70251;60.008;30.404;2023-08-24T14:26:51;3.80;;;0.87;;
80836;SDS011;70251;60.008;30.404;2023-08-24T14:29:17;3.90;;;1.10;;
80836;SDS011;70251;60.008;30.404;2023-08-24T14:31:43;4.53;;;1.13;;
80836;SDS011;70251;60.008;30.404;2023-08-24T14:34:08;4.23;;;1.30;;
80836;SDS011;70251;60.008;30.404;2023-08-24T14:36:34;3.22;;;0.80;;
80836;SDS011;70251;60.008;30.404;2023-08-24T14:38:59;4.50;;;0.93;;